Time;durP1;ratioP1;P1;durP2;ratioP2;P2;SDS_P1;SDS_P2;PMS_P1;PMS_P2;Temp;Humidity;BMP_temperature;BMP_pressure;BME280_temperature;BME280_humidity;BME280_pressure;Samples;Min_cycle;Max_cycle;Signal;HPM_P1;HPM_P2
2024/01/12 00:00:48;;;;;;;0.90;0.70;;;5.10;75.60;;;;;;4980088;28;20035;-84
2024/01/12 00:03:14;;;;;;;1.02;0.52;;;5.10;75.50;;;;;;4969880;28;20088;-87
2024/01/12 00:05:40;;;;;;;0.98;0.73;;;5.10;75.50;;;;;;4968263;28;20043;-84
2024/01/12 00:08:06;;;;;;;3.38;0.70;;;5.10;75.40;;;;;;4984772;28;20037;-87
2024/01/12 00:10:32;;;;;;;0.98;0.55;;;5.10;75.10;;;;;;4953239;28;20035;-85
2024/01/12 00:12:58;;;;;;;1.08;0.63;;;5.10;75.10;;;;;;4995714;28;20169;-85
2024/01/12 00:15:24;;;;;;;1.80;0.73;;;5.00;75.30;;;;;;4999076;28;20034;-84
2024/01/12 00:17:50;;;;;;;1.75;0.93;;;5.10;75.40;;;;;;4982717;28;20049;-85
2024/01/12 00:20:16;;;;;;;1.65;0.80;;;5.00;76.10;;;;;;4984291;28;20413;-83
2024/01/12 00:22:42;;;;;;;1.38;0.70;;;5.00;75.60;;;;;;4984299;28;20035;-84
2024/01/12 00:25:08;;;;;;;1.55;0.68;;;5.00;75.50;;;;;;4970557;28;20390;-83
2024/01/12 00:27:34;;;;;;;1.13;0.63;;;5.00;75.70;;;;;;4980307;28;20042;-83
2024/01/12 00:30:00;;;;;;;0.88;0.65;;;5.00;75.70;;;;;;4977740;28;20046;-83
2024/01/12 00:32:26;;;;;;;1.40;0.70;;;5.00;75.90;;;;;;4968202;28;20038;-84
2024/01/12 00:34:52;;;;;;;1.88;0.70;;;5.00;76.20;;;;;;4968920;28;20433;-84
2024/01/12 00:37:18;;;;;;;1.52;0.98;;;5.00;76.30;;;;;;4982577;28;20042;-85
2024/01/12 00:39:44;;;;;;;1.15;0.73;;;5.00;76.40;;;;;;4987599;28;20042;-83
2024/01/12 00:42:10;;;;;;;0.82;0.60;;;4.90;76.70;;;;;;4986020;28;20035;-84
2024/01/12 00:44:36;;;;;;;1.83;0.60;;;4.90;76.80;;;;;;4980598;28;20030;-83
2024/01/12 00:47:02;;;;;;;1.73;0.90;;;4.90;76.60;;;;;;4982754;28;20042;-83
2024/01/12 00:49:28;;;;;;;0.70;0.60;;;4.90;76.40;;;;;;4980246;28;20046;-84
2024/01/12 00:51:54;;;;;;;1.73;0.65;;;4.90;76.20;;;;;;4982629;28;20494;-80
2024/01/12 00:54:26;;;;;;;1.00;0.55;;;4.90;76.20;;;;;;4984302;28;20061;-81
2024/01/12 00:56:53;;;;;;;1.50;0.80;;;4.90;76.10;;;;;;4984311;28;20042;-82
2024/01/12 00:59:19;;;;;;;1.95;0.70;;;4.90;76.60;;;;;;4982674;28;20125;-81
2024/01/12 01:01:45;;;;;;;2.03;0.90;;;4.80;76.60;;;;;;4968092;28;20089;-82
2024/01/12 01:04:11;;;;;;;0.95;0.85;;;4.90;76.50;;;;;;4980387;28;20494;-79
2024/01/12 01:06:37;;;;;;;1.10;0.80;;;4.80;76.30;;;;;;4982791;28;20035;-81
2024/01/12 01:09:03;;;;;;;1.90;0.60;;;4.80;76.20;;;;;;4981159;28;20108;-80
2024/01/12 01:11:30;;;;;;;1.45;0.63;;;4.80;76.30;;;;;;4982396;28;20042;-82
2024/01/12 01:13:56;;;;;;;3.78;1.00;;;4.80;76.60;;;;;;4952442;28;20102;-82
2024/01/12 01:16:23;;;;;;;0.90;0.75;;;4.80;76.40;;;;;;4966710;28;20031;-81
2024/01/12 01:18:49;;;;;;;1.35;0.60;;;4.80;76.20;;;;;;4980479;28;20063;-83
2024/01/12 01:21:15;;;;;;;1.92;1.20;;;4.80;76.00;;;;;;4981783;28;20076;-84
2024/01/12 01:23:42;;;;;;;1.13;0.60;;;4.80;76.10;;;;;;4980627;28;20469;-83
2024/01/12 01:26:07;;;;;;;2.08;0.95;;;4.80;75.90;;;;;;4978998;28;20031;-83
2024/01/12 01:28:33;;;;;;;5.40;1.25;;;4.80;75.90;;;;;;4981662;28;20437;-84
2024/01/12 01:30:59;;;;;;;1.67;0.90;;;4.80;76.00;;;;;;4981778;28;20035;-82
2024/01/12 01:33:25;;;;;;;1.52;0.70;;;4.80;76.60;;;;;;4991858;28;20078;-83
2024/01/12 01:35:51;;;;;;;0.77;0.57;;;4.80;76.90;;;;;;4968080;28;20030;-83
2024/01/12 01:38:17;;;;;;;1.30;0.95;;;4.80;76.70;;;;;;4983112;28;20041;-84
2024/01/12 01:40:44;;;;;;;1.95;1.15;;;4.80;76.80;;;;;;4986872;28;20043;-82
2024/01/12 01:43:11;;;;;;;0.70;0.60;;;4.80;77.10;;;;;;4987710;28;20501;-82
2024/01/12 01:45:37;;;;;;;2.55;0.77;;;4.80;77.30;;;;;;4985899;28;20441;-84
2024/01/12 01:48:07;;;;;;;1.83;0.80;;;4.80;77.70;;;;;;4987592;28;20066;-83
2024/01/12 01:50:34;;;;;;;1.10;0.90;;;4.80;77.80;;;;;;4987722;28;20095;-84
2024/01/12 01:53:00;;;;;;;1.15;0.77;;;4.80;77.90;;;;;;5002317;28;20062;-84
2024/01/12 01:55:29;;;;;;;1.25;0.90;;;4.80;78.10;;;;;;4984577;28;20544;-84
2024/01/12 01:57:56;;;;;;;1.52;0.82;;;4.80;77.90;;;;;;4988094;28;20096;-86
2024/01/12 02:00:22;;;;;;;1.35;0.70;;;4.80;77.90;;;;;;4987491;28;20143;-85
2024/01/12 02:02:49;;;;;;;1.27;0.85;;;4.80;77.80;;;;;;4987317;28;20026;-86
2024/01/12 02:05:15;;;;;;;2.28;0.70;;;4.80;77.70;;;;;;4987144;28;20034;-85
2024/01/12 02:07:42;;;;;;;3.00;1.10;;;4.80;77.80;;;;;;4959707;28;20166;-85
2024/01/12 02:10:09;;;;;;;1.48;0.70;;;4.70;78.10;;;;;;4987382;28;20493;-85
2024/01/12 02:12:39;;;;;;;1.25;0.63;;;4.80;78.10;;;;;;4970128;28;20493;-84
2024/01/12 02:15:09;;;;;;;0.73;0.60;;;4.80;78.30;;;;;;4987063;28;20026;-84
2024/01/12 02:17:36;;;;;;;1.38;0.68;;;4.70;78.20;;;;;;4970044;28;20482;-84
2024/01/12 02:20:04;;;;;;;0.70;0.60;;;4.70;78.30;;;;;;4997546;28;20130;-83
2024/01/12 02:22:30;;;;;;;0.88;0.70;;;4.80;78.60;;;;;;4986440;28;20065;-85
2024/01/12 02:24:56;;;;;;;1.05;0.80;;;4.80;79.40;;;;;;4986439;28;20034;-83
2024/01/12 02:27:22;;;;;;;2.35;0.68;;;4.70;79.20;;;;;;4986787;28;20038;-82
2024/01/12 02:29:53;;;;;;;1.15;0.90;;;4.70;79.40;;;;;;4970243;28;20537;-83
2024/01/12 02:32:19;;;;;;;0.70;0.70;;;4.80;79.00;;;;;;4970080;28;20073;-85
2024/01/12 02:34:45;;;;;;;1.27;0.60;;;4.80;78.70;;;;;;4983800;28;20062;-81
2024/01/12 02:37:11;;;;;;;0.90;0.63;;;4.80;78.40;;;;;;4983674;28;20050;-84
2024/01/12 02:39:37;;;;;;;0.80;0.65;;;4.80;78.30;;;;;;4987730;28;20065;-83
2024/01/12 02:42:03;;;;;;;1.08;0.85;;;4.80;78.20;;;;;;4984897;28;20553;-82
2024/01/12 02:44:29;;;;;;;1.98;1.00;;;4.80;77.90;;;;;;4986484;28;20046;-84
2024/01/12 02:46:55;;;;;;;0.82;0.80;;;4.80;77.90;;;;;;4969279;28;20030;-83
2024/01/12 02:49:21;;;;;;;1.20;0.70;;;4.80;77.70;;;;;;4984562;28;20073;-82
2024/01/12 02:51:47;;;;;;;3.13;1.08;;;4.80;77.70;;;;;;4967983;28;20050;-85
2024/01/12 02:54:14;;;;;;;3.47;0.60;;;4.80;77.70;;;;;;4985290;28;20031;-83
2024/01/12 02:56:40;;;;;;;2.17;0.80;;;4.80;77.80;;;;;;4981772;28;20042;-80
2024/01/12 02:59:06;;;;;;;0.70;0.70;;;4.80;78.00;;;;;;4984314;28;20371;-84
2024/01/12 03:01:34;;;;;;;0.80;0.70;;;4.80;78.20;;;;;;4985969;28;20042;-84
2024/01/12 03:04:00;;;;;;;1.63;0.60;;;4.80;78.30;;;;;;4984012;28;21362;-82
2024/01/12 03:06:26;;;;;;;2.63;1.08;;;4.80;78.20;;;;;;4969709;28;20030;-85
2024/01/12 03:08:52;;;;;;;2.10;0.65;;;4.80;77.80;;;;;;4982684;28;20092;-85
2024/01/12 03:11:18;;;;;;;1.83;1.02;;;4.80;77.60;;;;;;4979487;28;20046;-83
2024/01/12 03:13:44;;;;;;;0.93;0.82;;;4.80;77.20;;;;;;4969267;28;20045;-83
2024/01/12 03:16:20;;;;;;;1.35;0.88;;;4.80;76.90;;;;;;4983420;28;20034;-84
2024/01/12 03:18:49;;;;;;;0.95;0.73;;;4.80;76.70;;;;;;4965514;28;20038;-83
2024/01/12 03:21:19;;;;;;;1.05;0.90;;;4.80;76.50;;;;;;4970528;28;20030;-83
2024/01/12 03:23:45;;;;;;;1.75;0.50;;;4.80;76.40;;;;;;4996262;28;20041;-83
2024/01/12 03:26:11;;;;;;;1.05;0.57;;;4.80;76.20;;;;;;4985721;28;20031;-82
2024/01/12 03:28:37;;;;;;;0.65;0.50;;;4.80;76.10;;;;;;4969726;28;20030;-85
2024/01/12 03:31:03;;;;;;;0.75;0.57;;;4.80;76.10;;;;;;4983155;28;20046;-81
2024/01/12 03:33:29;;;;;;;3.38;0.70;;;4.70;75.80;;;;;;4981002;28;20486;-82
2024/01/12 03:35:56;;;;;;;2.92;1.00;;;4.70;76.30;;;;;;4983878;28;20520;-81
2024/01/12 03:38:22;;;;;;;0.98;0.70;;;4.70;76.40;;;;;;4982690;28;20047;-81
2024/01/12 03:40:48;;;;;;;1.20;0.88;;;4.70;76.20;;;;;;4984994;28;20045;-81
2024/01/12 03:43:14;;;;;;;1.55;0.80;;;4.70;76.30;;;;;;4983505;28;20642;-83
2024/01/12 03:45:40;;;;;;;1.50;0.60;;;4.70;76.20;;;;;;4983746;28;20035;-82
2024/01/12 03:48:07;;;;;;;3.58;1.10;;;4.70;76.20;;;;;;4966626;28;20084;-80
2024/01/12 03:50:32;;;;;;;0.80;0.65;;;4.70;76.40;;;;;;4985675;28;20038;-82
2024/01/12 03:52:58;;;;;;;1.73;0.80;;;4.70;76.90;;;;;;5000118;28;20041;-80
2024/01/12 03:55:24;;;;;;;1.92;1.08;;;4.70;76.30;;;;;;4985060;28;20050;-81
2024/01/12 03:57:51;;;;;;;0.85;0.75;;;4.70;76.20;;;;;;4985337;28;20058;-82
2024/01/12 04:00:17;;;;;;;1.50;0.90;;;4.70;76.20;;;;;;4970076;28;20121;-81
2024/01/12 04:02:43;;;;;;;1.02;0.68;;;4.70;76.20;;;;;;4984826;28;20034;-83
2024/01/12 04:05:09;;;;;;;2.58;0.70;;;4.70;76.40;;;;;;4985361;28;20034;-80
2024/01/12 04:07:35;;;;;;;3.78;0.85;;;4.70;76.50;;;;;;4984942;28;20037;-83
2024/01/12 04:10:01;;;;;;;1.35;0.70;;;4.70;76.70;;;;;;4985909;28;20022;-82
2024/01/12 04:12:28;;;;;;;1.15;0.80;;;4.80;76.90;;;;;;4985055;28;20042;-85
2024/01/12 04:14:54;;;;;;;2.45;0.68;;;4.80;76.90;;;;;;4985959;28;20046;-86
2024/01/12 04:17:20;;;;;;;1.45;0.60;;;4.80;77.10;;;;;;4983770;28;20560;-83
2024/01/12 04:19:46;;;;;;;2.05;0.70;;;4.80;77.30;;;;;;4997782;28;20053;-82
2024/01/12 04:22:12;;;;;;;1.77;0.80;;;4.80;77.20;;;;;;4953375;28;20478;-82
2024/01/12 04:24:38;;;;;;;1.60;0.77;;;4.80;77.00;;;;;;4983940;28;20113;-85
2024/01/12 04:27:05;;;;;;;1.85;0.70;;;4.80;77.00;;;;;;4983123;28;20421;-81
2024/01/12 04:29:31;;;;;;;1.10;0.60;;;4.90;77.00;;;;;;4985075;28;20126;-85
2024/01/12 04:31:57;;;;;;;1.58;0.80;;;4.80;77.00;;;;;;4982793;28;20076;-82
2024/01/12 04:34:23;;;;;;;2.35;1.15;;;4.80;76.90;;;;;;4983949;28;20038;-86
2024/01/12 04:36:49;;;;;;;1.50;0.70;;;4.90;77.00;;;;;;4983594;28;20560;-83
2024/01/12 04:39:15;;;;;;;2.00;1.10;;;4.90;77.00;;;;;;4970336;28;20030;-88
2024/01/12 04:41:41;;;;;;;2.38;1.02;;;4.90;77.00;;;;;;4985052;28;20038;-85
2024/01/12 04:44:07;;;;;;;1.23;0.80;;;4.90;77.10;;;;;;4984582;28;20041;-84
2024/01/12 04:46:33;;;;;;;2.30;1.00;;;4.90;77.30;;;;;;4984541;28;20038;-89
2024/01/12 04:48:59;;;;;;;5.63;1.60;;;4.90;77.20;;;;;;4984782;28;20495;-85
2024/01/12 04:51:25;;;;;;;3.58;1.05;;;4.90;77.80;;;;;;4983545;28;20038;-85
2024/01/12 04:53:51;;;;;;;2.22;1.10;;;4.90;77.70;;;;;;4998921;28;20057;-86
2024/01/12 04:56:17;;;;;;;5.22;1.17;;;4.90;77.90;;;;;;4985225;28;20065;-86
2024/01/12 04:58:43;;;;;;;7.38;1.58;;;4.90;78.20;;;;;;4968939;28;20062;-86
2024/01/12 05:01:09;;;;;;;6.97;1.30;;;4.90;78.20;;;;;;4967197;28;20039;-85
2024/01/12 05:03:35;;;;;;;3.67;1.17;;;4.90;78.40;;;;;;4986162;28;20106;-86
2024/01/12 05:06:02;;;;;;;5.13;1.85;;;4.90;78.40;;;;;;4984367;28;20034;-86
2024/01/12 05:08:28;;;;;;;5.28;1.45;;;4.90;80.00;;;;;;4953990;28;20033;-86
2024/01/12 05:10:54;;;;;;;5.80;1.48;;;4.90;80.20;;;;;;4984910;28;20039;-86
2024/01/12 05:13:20;;;;;;;2.75;1.42;;;4.90;80.30;;;;;;4981544;28;20042;-86
2024/01/12 05:15:46;;;;;;;4.53;1.30;;;4.90;80.30;;;;;;5002988;28;20026;-86
2024/01/12 05:18:12;;;;;;;4.78;1.30;;;4.90;80.30;;;;;;4988867;28;20065;-87
2024/01/12 05:20:39;;;;;;;2.75;1.20;;;4.90;80.50;;;;;;4986926;28;20044;-87
2024/01/12 05:23:05;;;;;;;3.65;1.42;;;4.90;80.50;;;;;;4971517;28;20049;-86
2024/01/12 05:25:31;;;;;;;4.13;1.23;;;4.90;80.70;;;;;;4987977;28;20650;-87
2024/01/12 05:27:57;;;;;;;2.30;1.00;;;4.90;80.60;;;;;;4985276;28;20615;-87
2024/01/12 05:30:23;;;;;;;3.08;1.17;;;5.00;80.40;;;;;;4971578;28;20034;-86
2024/01/12 05:32:49;;;;;;;2.88;1.08;;;5.00;80.30;;;;;;4988548;28;20053;-86
2024/01/12 05:35:15;;;;;;;6.28;1.45;;;5.00;80.10;;;;;;4986966;28;20030;-86
2024/01/12 05:37:41;;;;;;;2.88;1.17;;;5.00;79.80;;;;;;4972580;28;20093;-88
2024/01/12 05:40:08;;;;;;;1.85;1.00;;;5.00;79.80;;;;;;4985447;28;20073;-86
2024/01/12 05:42:34;;;;;;;3.70;1.05;;;5.00;79.60;;;;;;4986709;28;20066;-84
2024/01/12 05:45:00;;;;;;;2.65;1.02;;;5.00;79.40;;;;;;4987533;28;20474;-86
2024/01/12 05:47:26;;;;;;;3.10;1.13;;;5.10;79.50;;;;;;4971389;28;20034;-87
2024/01/12 05:49:52;;;;;;;2.63;1.05;;;5.10;79.40;;;;;;4987399;28;20121;-87
2024/01/12 05:52:18;;;;;;;2.15;1.00;;;5.10;79.40;;;;;;4988526;28;20037;-84
2024/01/12 05:54:44;;;;;;;1.77;0.93;;;5.10;79.40;;;;;;4986864;28;20026;-84
2024/01/12 05:57:10;;;;;;;3.17;0.90;;;5.10;79.00;;;;;;4987538;28;20038;-86
2024/01/12 05:59:36;;;;;;;2.10;0.90;;;5.10;78.80;;;;;;4988167;28;20034;-86
2024/01/12 06:02:03;;;;;;;2.67;1.27;;;5.10;79.00;;;;;;4986718;28;20537;-86
2024/01/12 06:04:29;;;;;;;3.33;1.38;;;5.10;79.90;;;;;;4986451;28;20038;-85
2024/01/12 06:06:55;;;;;;;2.00;1.08;;;5.10;79.60;;;;;;5002254;28;20049;-85
2024/01/12 06:09:21;;;;;;;2.50;0.98;;;5.10;79.20;;;;;;4971905;28;20048;-85
2024/01/12 06:11:47;;;;;;;2.35;1.13;;;5.10;79.10;;;;;;4951573;28;20034;-85
2024/01/12 06:14:16;;;;;;;2.63;1.00;;;5.10;79.10;;;;;;4969181;28;20387;-86
2024/01/12 06:16:42;;;;;;;2.53;1.23;;;5.20;78.90;;;;;;4985697;28;20501;-83
2024/01/12 06:19:08;;;;;;;4.20;0.95;;;5.10;79.00;;;;;;4986306;28;20038;-84
2024/01/12 06:21:34;;;;;;;3.00;1.30;;;5.20;79.40;;;;;;4970875;28;20046;-84
2024/01/12 06:24:00;;;;;;;1.48;0.70;;;5.20;79.60;;;;;;4968989;28;20058;-84
2024/01/12 06:26:26;;;;;;;1.27;0.82;;;5.20;79.80;;;;;;4986998;28;20125;-83
2024/01/12 06:28:52;;;;;;;1.30;0.63;;;5.20;80.70;;;;;;4969399;28;20121;-84
2024/01/12 06:31:18;;;;;;;2.20;1.23;;;5.20;80.80;;;;;;4970079;28;20042;-83
2024/01/12 06:33:44;;;;;;;2.63;0.98;;;5.20;81.00;;;;;;4985949;28;20493;-84
2024/01/12 06:36:10;;;;;;;1.80;1.08;;;5.20;80.60;;;;;;4986089;28;20050;-86
2024/01/12 06:38:36;;;;;;;1.10;0.73;;;5.20;80.30;;;;;;4971111;28;20026;-93
2024/01/12 06:41:03;;;;;;;1.83;1.00;;;5.30;80.00;;;;;;4989276;28;20096;-92
2024/01/12 06:43:29;;;;;;;1.83;0.80;;;5.30;80.00;;;;;;4990104;28;20038;-93
2024/01/12 06:45:55;;;;;;;1.95;0.95;;;5.30;79.90;;;;;;4974875;28;20026;-89
2024/01/12 06:48:21;;;;;;;2.17;1.05;;;5.20;79.80;;;;;;4977368;28;20030;-89
2024/01/12 06:50:47;;;;;;;2.05;0.93;;;5.30;79.70;;;;;;4994805;28;20046;-90
2024/01/12 06:53:14;;;;;;;1.98;0.90;;;5.30;79.50;;;;;;4982136;28;20035;-92
2024/01/12 06:55:40;;;;;;;3.50;1.02;;;5.30;79.20;;;;;;4983243;28;20106;-92
2024/01/12 06:58:06;;;;;;;1.08;0.70;;;5.30;78.80;;;;;;4991300;28;20077;-93
2024/01/12 07:00:32;;;;;;;2.13;0.90;;;5.30;78.60;;;;;;4997949;28;20038;-94
2024/01/12 07:02:58;;;;;;;2.08;0.93;;;5.30;78.20;;;;;;4992485;28;20053;-87
2024/01/12 07:05:25;;;;;;;1.55;0.70;;;5.30;77.50;;;;;;4973563;28;20094;-88
2024/01/12 07:07:51;;;;;;;0.70;0.70;;;5.30;78.80;;;;;;5007845;28;20045;-91
2024/01/12 07:10:17;;;;;;;1.50;0.90;;;5.30;77.20;;;;;;4994100;28;20069;-89
2024/01/12 07:12:43;;;;;;;2.55;0.93;;;5.30;78.40;;;;;;4980657;28;20133;-91
2024/01/12 07:15:10;;;;;;;1.83;0.90;;;5.30;78.30;;;;;;4973761;28;20046;-91
2024/01/12 07:17:36;;;;;;;2.85;1.17;;;5.20;77.70;;;;;;4989242;28;20090;-86
2024/01/12 07:20:02;;;;;;;2.08;1.02;;;5.30;76.80;;;;;;5014530;28;20035;-87
2024/01/12 07:22:28;;;;;;;1.98;1.08;;;5.30;77.80;;;;;;5000468;28;20025;-88
2024/01/12 07:24:54;;;;;;;2.15;1.10;;;5.30;77.60;;;;;;5013627;28;20038;-86
2024/01/12 07:27:20;;;;;;;1.25;0.85;;;5.30;77.40;;;;;;5011444;28;20034;-81
2024/01/12 07:29:46;;;;;;;1.85;1.05;;;5.30;77.30;;;;;;4980886;28;20019;-84
2024/01/12 07:32:12;;;;;;;2.63;1.00;;;5.30;77.90;;;;;;5010618;28;20578;-85
2024/01/12 07:34:38;;;;;;;2.33;1.02;;;5.30;78.20;;;;;;5001935;28;20042;-84
2024/01/12 07:37:04;;;;;;;1.92;1.13;;;5.30;77.90;;;;;;5006926;28;20026;-84
2024/01/12 07:39:30;;;;;;;3.42;1.20;;;5.30;79.00;;;;;;4987754;28;20018;-83
2024/01/12 07:41:56;;;;;;;3.92;1.20;;;5.30;78.40;;;;;;5007982;28;20034;-83
2024/01/12 07:44:22;;;;;;;1.67;1.02;;;5.30;78.40;;;;;;5004975;28;20018;-85
2024/01/12 07:46:48;;;;;;;1.88;1.00;;;5.30;78.40;;;;;;5005972;28;20042;-87
2024/01/12 07:49:15;;;;;;;1.80;1.00;;;5.30;78.20;;;;;;5005349;28;20034;-86
2024/01/12 07:51:41;;;;;;;2.17;1.10;;;5.40;78.10;;;;;;5006925;28;20549;-85
2024/01/12 07:54:08;;;;;;;2.53;1.02;;;5.40;77.90;;;;;;5003872;28;20022;-83
2024/01/12 07:56:34;;;;;;;2.30;1.13;;;5.40;78.10;;;;;;5007682;28;20030;-85
2024/01/12 07:59:00;;;;;;;1.33;0.90;;;5.40;78.00;;;;;;4987299;28;20027;-84
2024/01/12 08:01:26;;;;;;;1.83;0.93;;;5.40;78.20;;;;;;4990265;28;20026;-87
2024/01/12 08:03:53;;;;;;;1.65;0.98;;;5.40;78.30;;;;;;4986007;28;20098;-89
2024/01/12 08:06:19;;;;;;;2.80;1.00;;;5.40;78.60;;;;;;4991158;28;20030;-87
2024/01/12 08:08:45;;;;;;;3.05;0.90;;;5.50;78.60;;;;;;5008660;28;20042;-87
2024/01/12 08:11:11;;;;;;;3.95;1.20;;;5.50;78.70;;;;;;4952310;28;20517;-90
2024/01/12 08:13:37;;;;;;;1.55;1.00;;;5.50;78.70;;;;;;4973294;28;20034;-88
2024/01/12 08:16:03;;;;;;;1.20;0.95;;;5.50;78.40;;;;;;4955697;28;20026;-91
2024/01/12 08:18:29;;;;;;;1.52;0.90;;;5.50;78.60;;;;;;4956126;28;20242;-87
2024/01/12 08:20:56;;;;;;;1.73;0.80;;;5.50;78.10;;;;;;4988081;28;20030;-89
2024/01/12 08:23:22;;;;;;;2.80;1.20;;;5.50;78.10;;;;;;4984865;28;20038;-90
2024/01/12 08:25:48;;;;;;;1.48;0.88;;;5.50;78.20;;;;;;4966194;28;20044;-89
2024/01/12 08:28:14;;;;;;;1.50;1.00;;;5.60;78.10;;;;;;4986015;28;20057;-92
2024/01/12 08:30:40;;;;;;;1.75;1.00;;;5.60;77.90;;;;;;4975873;28;20030;-90
2024/01/12 08:33:06;;;;;;;2.00;0.85;;;5.60;77.70;;;;;;4978394;28;20035;-94
2024/01/12 08:35:33;;;;;;;2.25;1.00;;;5.60;77.50;;;;;;4994117;28;20034;-88
2024/01/12 08:37:59;;;;;;;1.75;0.85;;;5.60;77.50;;;;;;4986852;28;20070;-89
2024/01/12 08:40:25;;;;;;;2.17;0.90;;;5.70;77.50;;;;;;4994253;28;20041;-89
2024/01/12 08:42:51;;;;;;;1.67;0.98;;;5.70;77.80;;;;;;4991585;28;20034;-89
2024/01/12 08:45:18;;;;;;;2.15;1.08;;;5.70;77.80;;;;;;4983557;28;20034;-90
2024/01/12 08:47:43;;;;;;;1.90;1.10;;;5.70;77.90;;;;;;4994987;28;20034;-94
2024/01/12 08:50:09;;;;;;;1.73;0.88;;;5.70;77.70;;;;;;4977547;28;20039;-90
2024/01/12 08:52:35;;;;;;;1.30;1.15;;;5.70;77.80;;;;;;4962088;28;20039;-94
2024/01/12 08:55:04;;;;;;;4.00;1.20;;;5.70;77.80;;;;;;4966459;28;20134;-91
2024/01/12 08:57:30;;;;;;;0.85;0.68;;;5.70;77.60;;;;;;4990456;28;20109;-90
2024/01/12 08:59:56;;;;;;;2.72;1.25;;;5.80;77.70;;;;;;4994077;28;20085;-93
2024/01/12 09:02:22;;;;;;;1.60;0.93;;;5.70;77.80;;;;;;4961069;28;20038;-90
2024/01/12 09:04:48;;;;;;;1.48;0.90;;;5.80;78.00;;;;;;4959678;28;20547;-90
2024/01/12 09:07:14;;;;;;;1.10;0.85;;;5.80;77.70;;;;;;4959710;28;20030;-92
2024/01/12 09:09:41;;;;;;;1.63;0.95;;;5.80;77.50;;;;;;4960586;28;20517;-90
2024/01/12 09:12:07;;;;;;;1.67;1.08;;;5.80;77.20;;;;;;4959408;28;20138;-91
2024/01/12 09:14:34;;;;;;;2.05;0.90;;;5.80;77.20;;;;;;4959726;28;20049;-90
2024/01/12 09:17:01;;;;;;;1.77;0.93;;;5.80;77.50;;;;;;4960689;28;20038;-89
2024/01/12 09:19:27;;;;;;;1.20;0.73;;;5.80;77.20;;;;;;4960859;28;20039;-94
2024/01/12 09:21:53;;;;;;;2.17;0.95;;;5.80;77.40;;;;;;4961674;28;20509;-93
2024/01/12 09:24:19;;;;;;;1.10;1.00;;;5.80;76.80;;;;;;4961242;28;20076;-92
2024/01/12 09:26:45;;;;;;;1.05;0.70;;;5.80;76.90;;;;;;4976236;28;20129;-94
2024/01/12 09:29:11;;;;;;;1.73;0.70;;;5.80;76.50;;;;;;4990192;28;20041;-92
2024/01/12 09:31:38;;;;;;;1.65;0.73;;;5.80;77.10;;;;;;4977352;28;20919;-94
2024/01/12 09:34:04;;;;;;;1.02;0.73;;;5.80;77.50;;;;;;4973663;28;20062;-93
2024/01/12 09:36:30;;;;;;;1.75;0.85;;;5.80;76.80;;;;;;4997022;28;20065;-91
2024/01/12 09:38:56;;;;;;;1.50;0.77;;;5.80;77.00;;;;;;4999064;28;20034;-92
2024/01/12 09:41:48;;;;;;;2.15;1.10;;;5.80;76.50;;;;;;4980913;28;20078;-94
2024/01/12 09:44:20;;;;;;;2.30;0.70;;;5.80;77.90;;;;;;4963149;28;20030;-92
2024/01/12 09:46:57;;;;;;;1.42;0.95;;;5.70;78.00;;;;;;4989101;28;20089;-95
2024/01/12 09:49:27;;;;;;;7.25;1.40;;;5.80;78.60;;;;;;4978208;28;20374;-92
2024/01/12 09:51:53;;;;;;;1.25;1.02;;;5.80;79.70;;;;;;4993709;28;20076;-95
2024/01/12 09:54:19;;;;;;;1.00;0.75;;;5.80;78.60;;;;;;4984282;28;20034;-91
2024/01/12 09:56:46;;;;;;;1.95;0.90;;;5.80;77.20;;;;;;4974788;28;20158;-91
2024/01/12 09:59:12;;;;;;;1.10;0.90;;;5.70;75.10;;;;;;4972570;28;20030;-89
2024/01/12 10:01:42;;;;;;;1.33;0.95;;;5.70;73.70;;;;;;4962934;28;20089;-88
2024/01/12 10:04:09;;;;;;;1.92;1.10;;;5.70;72.50;;;;;;4970249;28;20030;-92
2024/01/12 10:06:37;;;;;;;1.65;0.73;;;5.70;72.10;;;;;;4987272;28;20058;-93
2024/01/12 10:09:04;;;;;;;2.53;1.10;;;5.60;72.00;;;;;;4987039;28;20044;-93
2024/01/12 10:11:30;;;;;;;1.05;0.95;;;5.60;71.90;;;;;;4968882;28;20039;-95
2024/01/12 10:13:56;;;;;;;1.45;0.90;;;5.60;71.60;;;;;;4989508;28;20069;-95
2024/01/12 10:16:28;;;;;;;1.60;1.25;;;5.60;71.10;;;;;;4973597;28;20047;-92
2024/01/12 10:18:58;;;;;;;1.80;1.10;;;5.50;71.00;;;;;;4989684;28;20070;-92
2024/01/12 10:21:25;;;;;;;1.58;0.80;;;5.50;70.70;;;;;;4989189;28;20022;-93
2024/01/12 10:24:05;;;;;;;1.00;0.90;;;5.50;70.20;;;;;;4988235;28;20027;-91
2024/01/12 10:26:31;;;;;;;1.15;0.80;;;5.40;70.00;;;;;;4955597;28;20030;-90
2024/01/12 10:29:02;;;;;;;2.42;1.20;;;5.40;70.60;;;;;;4974552;28;20805;-89
2024/01/12 10:31:29;;;;;;;3.40;1.73;;;5.40;72.40;;;;;;4986177;28;20031;-91
2024/01/12 10:34:00;;;;;;;2.90;1.92;;;5.40;72.50;;;;;;4974054;28;20052;-92
2024/01/12 10:36:30;;;;;;;2.67;2.00;;;5.40;71.90;;;;;;4976963;28;20030;-91
2024/01/12 10:39:00;;;;;;;3.20;1.80;;;5.40;71.50;;;;;;4969815;28;20034;-91
2024/01/12 10:41:27;;;;;;;2.08;1.77;;;5.30;71.40;;;;;;4976128;28;20169;-90
2024/01/12 10:43:56;;;;;;;2.90;1.83;;;5.30;71.40;;;;;;4972273;28;20129;-87
2024/01/12 10:46:47;;;;;;;2.60;1.30;;;5.30;71.10;;;;;;4971323;28;20042;-88
2024/01/12 10:49:17;;;;;;;1.48;1.38;;;5.20;70.20;;;;;;4955235;28;20038;-88
2024/01/12 10:52:00;;;;;;;2.42;1.48;;;5.20;70.30;;;;;;4988217;28;20034;-92
2024/01/12 10:54:29;;;;;;;3.65;1.38;;;5.20;69.90;;;;;;4995143;28;20050;-92
2024/01/12 10:56:56;;;;;;;1.98;1.30;;;5.20;70.00;;;;;;4991754;28;20096;-96
2024/01/12 10:59:23;;;;;;;2.30;1.40;;;5.20;69.90;;;;;;4975484;28;20038;-90
2024/01/12 11:01:49;;;;;;;2.38;1.20;;;5.10;70.10;;;;;;4971352;28;20037;-91
2024/01/12 11:04:16;;;;;;;1.30;1.00;;;5.10;70.30;;;;;;4987838;28;20122;-90
2024/01/12 11:06:48;;;;;;;2.33;1.10;;;5.10;70.70;;;;;;4970386;28;20129;-87
2024/01/12 11:09:17;;;;;;;2.47;1.20;;;5.10;70.30;;;;;;4983144;28;20081;-87
2024/01/12 11:11:56;;;;;;;1.65;1.10;;;5.10;71.00;;;;;;4989090;28;20501;-89
2024/01/12 11:14:23;;;;;;;2.10;1.05;;;5.10;71.30;;;;;;4969368;28;20049;-89
2024/01/12 11:16:50;;;;;;;1.60;1.00;;;5.00;70.50;;;;;;4970110;28;20511;-90
2024/01/12 11:19:19;;;;;;;1.58;1.02;;;5.00;70.20;;;;;;4974061;28;20042;-88
2024/01/12 11:21:45;;;;;;;1.42;1.05;;;5.00;69.80;;;;;;4987073;28;20034;-88
2024/01/12 11:24:12;;;;;;;1.55;0.90;;;4.90;69.60;;;;;;4987228;28;20035;-89
2024/01/12 11:26:41;;;;;;;1.33;1.13;;;4.90;69.60;;;;;;4967735;28;20042;-88
2024/01/12 11:29:29;;;;;;;1.63;1.00;;;4.90;69.60;;;;;;4954786;28;20038;-89
2024/01/12 11:32:01;;;;;;;2.50;1.10;;;4.90;70.20;;;;;;4987530;28;20572;-87
2024/01/12 11:34:37;;;;;;;1.77;1.23;;;4.90;69.90;;;;;;4983907;28;20069;-87
2024/01/12 11:37:03;;;;;;;;;;;4.90;70.00;;;;;;4994886;28;20098;-89
2024/01/12 11:39:34;;;;;;;1.85;1.15;;;4.90;70.30;;;;;;4974048;28;19913;-91
2024/01/12 11:42:07;;;;;;;2.40;1.13;;;4.80;69.90;;;;;;4972186;28;20079;-90
2024/01/12 11:44:35;;;;;;;1.27;0.95;;;4.90;69.90;;;;;;4990198;28;20026;-92
2024/01/12 11:47:05;;;;;;;1.48;0.98;;;4.80;70.00;;;;;;4972022;28;20568;-92
2024/01/12 11:49:31;;;;;;;2.35;1.08;;;4.80;70.30;;;;;;4985803;28;20042;-87
2024/01/12 11:52:07;;;;;;;2.25;1.20;;;4.80;70.30;;;;;;4969499;28;20030;-90
2024/01/12 11:54:33;;;;;;;1.33;0.93;;;4.80;69.90;;;;;;4969124;28;20034;-89
2024/01/12 11:57:01;;;;;;;0.80;0.80;;;4.80;69.70;;;;;;4966273;28;20042;-89
2024/01/12 11:59:29;;;;;;;2.95;1.17;;;4.80;69.60;;;;;;4985827;28;20053;-91
2024/01/12 12:01:55;;;;;;;1.20;1.10;;;4.80;69.40;;;;;;4954284;28;20061;-84
2024/01/12 12:04:21;;;;;;;1.65;0.95;;;4.80;69.20;;;;;;4984798;28;20038;-83
2024/01/12 12:06:47;;;;;;;2.33;1.20;;;4.70;69.30;;;;;;4984901;28;20042;-84
2024/01/12 12:09:14;;;;;;;2.28;1.27;;;4.70;69.70;;;;;;4981908;28;20026;-83
2024/01/12 12:11:40;;;;;;;1.85;1.27;;;4.70;69.50;;;;;;4965765;28;20498;-83
2024/01/12 12:14:06;;;;;;;1.27;1.10;;;4.70;69.40;;;;;;4984986;28;20054;-84
2024/01/12 12:16:34;;;;;;;2.60;1.17;;;4.70;69.70;;;;;;4979428;28;20049;-84
2024/01/12 12:19:00;;;;;;;1.52;1.20;;;4.60;69.70;;;;;;4965135;28;20054;-85
2024/01/12 12:21:27;;;;;;;1.52;1.20;;;4.60;70.00;;;;;;4982674;28;20039;-85
2024/01/12 12:23:54;;;;;;;1.50;0.90;;;4.70;70.20;;;;;;4968916;28;20109;-85
2024/01/12 12:26:20;;;;;;;2.40;1.38;;;4.70;71.10;;;;;;4979977;28;20045;-84
2024/01/12 12:28:47;;;;;;;2.40;1.30;;;4.60;71.10;;;;;;4969135;28;20034;-86
2024/01/12 12:31:13;;;;;;;1.60;1.10;;;4.60;71.70;;;;;;4982286;28;20038;-85
2024/01/12 12:33:46;;;;;;;2.22;1.20;;;4.60;72.20;;;;;;4986552;28;20042;-84
2024/01/12 12:36:13;;;;;;;2.58;0.90;;;4.60;72.40;;;;;;4997616;28;20070;-88
2024/01/12 12:38:39;;;;;;;1.98;1.25;;;4.60;72.40;;;;;;4969056;28;20151;-86
2024/01/12 12:41:09;;;;;;;1.40;1.10;;;4.60;72.10;;;;;;4982998;28;20509;-85
2024/01/12 12:43:37;;;;;;;2.25;1.05;;;4.50;71.50;;;;;;4981406;28;20510;-85
2024/01/12 12:46:04;;;;;;;1.40;1.00;;;4.50;70.90;;;;;;4984279;28;20045;-85
2024/01/12 12:48:31;;;;;;;1.45;1.00;;;4.50;70.30;;;;;;4968721;28;20030;-85
2024/01/12 12:50:58;;;;;;;1.33;1.00;;;4.50;70.10;;;;;;4981327;28;20031;-84
2024/01/12 12:53:24;;;;;;;1.65;1.33;;;4.50;69.60;;;;;;4980465;28;20081;-84
2024/01/12 12:55:50;;;;;;;2.03;1.20;;;4.50;69.80;;;;;;4981157;28;20035;-82